• Join FlightAware (Why Join?)
  • Login
  • US Flag 
04:05AM EDT


 

Airport Tracker/Info


-or-


 

Live Flight TrackerFlight Track Log ✈ FLG4236 ✈ 25-Apr-2012 ✈ KDSM - KMSP

Flight Track Log - Related Links

Times and Time Zones

All times are in EDT time to prevent confusion due to time zone crossing. See the FLG4236 flight status page for this flight to view local times or setup timezone preferences in your user account.

Time Position Orientation Groundspeed Altitude Reporting Facility
EDT Latitude Longitude Course Direction KTS MPH feet Rate Location/Type
04:19PM 41.5806 -93.7075 330° Northwest 162 186 3,000  Level Minneapolis Center
04:20PM 41.6097 -93.7300 337° Northwest 192 221 4,100 1,680 Climbing Minneapolis Center
04:20PM 41.6386 -93.7467 353° North 248 285 5,100 2,040 Climbing Minneapolis Center
04:21PM 41.7094 -93.7581 352° North 254 292 7,500 2,340 Climbing Minneapolis Center
04:22PM 41.7883 -93.7725 353° North 266 306 9,800 1,560 Climbing Minneapolis Center
04:23PM 41.8717 -93.7869 351° North 278 320 10,600 900 Climbing Minneapolis Center
04:24PM 41.9631 -93.8069 352° North 312 359 11,700 1,380 Climbing Minneapolis Center
04:25PM 42.0589 -93.8242 351° North 335 386 13,400 1,740 Climbing Minneapolis Center
04:26PM 42.1503 -93.8444 352° North 353 406 15,200 1,500 Climbing Minneapolis Center
04:27PM 42.2439 -93.8617 353° North 348 400 16,400 1,020 Climbing Minneapolis Center
04:28PM 42.3458 -93.8794 352° North 361 415 17,300 1,140 Climbing Minneapolis Center
04:29PM 42.4519 -93.8997 351° North 377 434 18,700 840 Climbing Minneapolis Center
04:30PM 42.5622 -93.9231 352° North 383 441 19,000 120 Climbing Minneapolis Center
04:31PM 42.6725 -93.9439 352° North 394 453 19,000  Level Minneapolis Center
04:32PM 42.7869 -93.9644 359° North 399 459 19,000  Level Minneapolis Center
04:33PM 42.8972 -93.9683 36° Northeast 399 459 19,000  Level Minneapolis Center
04:34PM 42.9892 -93.8756 38° Northeast 382 440 19,000  Level Minneapolis Center
04:35PM 43.0875 -93.7711 40° Northeast 388 447 19,000  Level Minneapolis Center
04:36PM 43.1731 -93.6722 39° Northeast 411 473 19,000  Level Minneapolis Center
04:37PM 43.2647 -93.5700 North 416 479 19,000  Level Minneapolis Center
04:38PM 43.3731 -93.5475 North 392 451 19,000  Level Minneapolis Center
04:39PM 43.4772 -93.5389 352° North 379 436 19,000  Level Minneapolis Center
04:40PM 43.5731 -93.5564 326° Northwest 335 386 19,000 -600 Level Minneapolis Center
04:41PM 43.6439 -93.6225 North 317 365 17,800 -1,080 Descending Minneapolis Center
04:42PM 43.7375 -93.6056 11° North 316 364 16,900 -900 Descending Minneapolis Center
04:43PM 43.8417 -93.5769 11° North 328 377 16,100 -780 Descending Minneapolis Center
04:44PM 43.9333 -93.5514 15° North 344 396 15,400 -780 Descending Minneapolis Center
04:45PM 43.9939 -93.5281 11° North 341 392 14,900 -780 Descending FAA TRACON SMA TRACON (SMA)
04:46PM 44.0578 -93.5108 12° North 340 391 14,400 -1,140 Descending FAA TRACON SMA TRACON (SMA)
04:46PM 44.1142 -93.4939 13° North 337 388 13,400 -1,800 Descending FAA TRACON SMA TRACON (SMA)
04:47PM 44.1761 -93.4744 14° North 328 377 12,000 -1,800 Descending FAA TRACON SMA TRACON (SMA)
04:48PM 44.2344 -93.4547 26° Northeast 309 356 11,000 -780 Descending FAA TRACON SMA TRACON (SMA)
04:48PM 44.2792 -93.4244 26° Northeast 290 334 11,000  Level FAA TRACON SMA TRACON (SMA)
04:49PM 44.3256 -93.3931 28° Northeast 265 305 11,000 -240 Level FAA TRACON SMA TRACON (SMA)
04:50PM 44.3692 -93.3611 25° Northeast 253 291 10,700 -720 Descending FAA TRACON SMA TRACON (SMA)
04:50PM 44.4081 -93.3353 26° Northeast 253 291 10,100 -840 Descending FAA TRACON SMA TRACON (SMA)
04:51PM 44.4481 -93.3083 26° Northeast 227 261 9,600 -900 Descending FAA TRACON SMA TRACON (SMA)
04:52PM 44.4853 -93.2825 27° Northeast 215 247 8,900 -1,140 Descending FAA TRACON SMA TRACON (SMA)
04:52PM 44.5214 -93.2569 20° North 210 242 8,100 -1,140 Descending FAA TRACON SMA TRACON (SMA)
04:53PM 44.5547 -93.2400 14° North 207 238 7,400 -1,320 Descending FAA TRACON SMA TRACON (SMA)
04:54PM 44.5933 -93.2269 North 209 241 6,400 -1,320 Descending FAA TRACON SMA TRACON (SMA)
04:54PM 44.6286 -93.2228 North 207 238 5,700 -1,080 Descending FAA TRACON SMA TRACON (SMA)
04:55PM 44.6664 -93.2161 12° North 198 228 5,000 -1,200 Descending FAA TRACON SMA TRACON (SMA)
04:56PM 44.7042 -93.2050 North 201 231 4,100 -1,200 Descending FAA TRACON SMA TRACON (SMA)
04:56PM 44.7425 -93.2031 348° North 198 228 3,400 -1,020 Descending FAA TRACON SMA TRACON (SMA)
04:57PM 44.7911 -93.2172 349° North 193 222 2,500 -1,020 Descending FAA TRACON SMA TRACON (SMA)
04:58PM 44.8236 -93.2258 350° North 167 192 1,800 -1,020 Descending FAA TRACON SMA TRACON (SMA)
04:59PM 44.8517 -93.2331 356° North 146 168 1,200 -300 Descending FAA TRACON SMA TRACON (SMA)
05:01PM 44.8892 -93.2369 356° North 22 25 800 -180 Descending Minneapolis Center